Time;durP1;ratioP1;P1;durP2;ratioP2;P2;SDS_P1;SDS_P2;PMS_P1;PMS_P2;Temp;Humidity;BMP_temperature;BMP_pressure;BME280_temperature;BME280_humidity;BME280_pressure;Samples;Min_cycle;Max_cycle;Signal;HPM_P1;HPM_P2
2023/05/17 00:01:55;;;;;;;6.35;1.65;;;10.90;99.90;;;;;;5076687;28;20115;-73
2023/05/17 00:04:21;;;;;;;3.53;1.65;;;10.50;99.90;;;;;;5077358;28;20116;-72
2023/05/17 00:06:46;;;;;;;4.38;1.80;;;10.50;99.90;;;;;;5076439;28;20058;-72
2023/05/17 00:09:12;;;;;;;8.02;1.90;;;10.30;99.90;;;;;;5076534;28;20059;-73
2023/05/17 00:11:38;;;;;;;3.58;1.55;;;10.30;99.90;;;;;;5076296;28;20025;-73
2023/05/17 00:14:16;;;;;;;5.15;1.80;;;10.40;99.90;;;;;;5075437;28;20429;-72
2023/05/17 00:16:42;;;;;;;2.47;1.30;;;10.40;99.90;;;;;;5091466;22;20045;-73
2023/05/17 00:19:10;;;;;;;8.43;1.63;;;10.40;99.90;;;;;;5053442;28;20028;-73
2023/05/17 00:21:36;;;;;;;5.35;1.77;;;10.40;99.90;;;;;;5053328;28;20025;-73
2023/05/17 00:24:01;;;;;;;2.80;1.50;;;10.30;99.90;;;;;;5053414;28;20163;-74
2023/05/17 00:26:27;;;;;;;7.45;2.10;;;10.30;99.90;;;;;;5054212;28;20033;-73
2023/05/17 00:28:52;;;;;;;5.63;1.73;;;10.20;99.90;;;;;;5053583;28;20025;-74
2023/05/17 00:31:18;;;;;;;8.07;2.38;;;10.20;99.90;;;;;;5053272;28;20017;-74
2023/05/17 00:33:43;;;;;;;5.70;2.80;;;10.20;99.90;;;;;;5053805;28;20017;-75
2023/05/17 00:36:09;;;;;;;5.30;1.77;;;10.20;99.90;;;;;;5053430;28;20025;-75
2023/05/17 00:38:34;;;;;;;6.13;2.20;;;10.20;99.90;;;;;;5053260;28;20028;-74
2023/05/17 00:41:00;;;;;;;7.18;2.22;;;10.30;99.90;;;;;;5054210;28;20029;-74
2023/05/17 00:43:26;;;;;;;4.05;1.55;;;10.30;99.90;;;;;;5053316;28;20023;-74
2023/05/17 00:45:52;;;;;;;5.20;1.98;;;10.30;99.90;;;;;;5052957;28;20041;-73
2023/05/17 00:48:19;;;;;;;4.88;1.85;;;10.30;99.90;;;;;;5053242;28;20025;-74
2023/05/17 00:50:46;;;;;;;4.82;1.33;;;10.20;99.90;;;;;;5053202;28;20037;-75
2023/05/17 00:53:15;;;;;;;8.73;2.10;;;10.10;99.90;;;;;;5053317;28;20025;-74
2023/05/17 00:55:42;;;;;;;3.08;1.58;;;10.00;99.90;;;;;;5052915;28;20042;-73
2023/05/17 00:58:08;;;;;;;3.80;2.20;;;9.70;99.90;;;;;;5053276;28;20017;-75
2023/05/17 01:00:34;;;;;;;4.88;1.77;;;9.70;99.90;;;;;;5052697;28;20021;-75
2023/05/17 01:02:59;;;;;;;5.72;2.08;;;9.70;99.90;;;;;;5053258;28;20082;-75
2023/05/17 01:05:27;;;;;;;3.22;1.42;;;9.50;99.90;;;;;;5052597;28;20074;-76
2023/05/17 01:07:53;;;;;;;3.85;1.60;;;9.50;99.90;;;;;;5052572;28;20037;-76
2023/05/17 01:10:18;;;;;;;3.90;1.40;;;9.50;99.90;;;;;;5052809;28;20021;-76
2023/05/17 01:12:44;;;;;;;6.07;1.30;;;9.50;99.90;;;;;;5052434;28;20036;-73
2023/05/17 01:15:24;;;;;;;5.60;1.65;;;9.60;99.90;;;;;;5052489;28;20024;-78
2023/05/17 01:18:14;;;;;;;4.70;1.77;;;9.60;99.90;;;;;;5053209;28;20025;-73
2023/05/17 01:20:43;;;;;;;4.75;1.40;;;9.70;99.90;;;;;;5052392;28;20041;-73
2023/05/17 01:23:28;;;;;;;7.15;2.00;;;9.70;99.90;;;;;;5053179;28;20025;-73
2023/05/17 01:26:01;;;;;;;6.43;2.60;;;9.70;99.90;;;;;;5038554;28;20033;-76
2023/05/17 01:28:28;;;;;;;3.38;1.50;;;9.50;99.90;;;;;;5039030;28;20029;-73
2023/05/17 01:30:56;;;;;;;3.25;1.20;;;9.40;99.90;;;;;;5039637;28;20025;-73
2023/05/17 01:33:22;;;;;;;3.90;1.70;;;9.40;99.90;;;;;;5039035;28;20025;-76
2023/05/17 01:35:48;;;;;;;3.22;1.65;;;9.30;99.90;;;;;;5039111;28;20033;-77
2023/05/17 01:38:13;;;;;;;7.47;1.70;;;9.20;99.90;;;;;;5038916;28;20018;-78
2023/05/17 01:40:49;;;;;;;5.25;1.67;;;9.20;99.90;;;;;;5038744;28;20022;-73
2023/05/17 01:43:29;;;;;;;4.90;1.80;;;9.20;99.90;;;;;;5038649;28;20021;-73
2023/05/17 01:46:31;;;;;;;4.22;1.55;;;9.20;99.90;;;;;;5038533;28;20022;-75
2023/05/17 01:49:29;;;;;;;8.73;1.38;;;9.10;99.90;;;;;;5039088;28;20022;-74
2023/05/17 01:52:30;;;;;;;2.42;1.60;;;9.00;99.90;;;;;;5038313;28;20054;-74
2023/05/17 01:55:22;;;;;;;4.38;1.67;;;9.00;99.90;;;;;;4962798;28;20034;-73
2023/05/17 01:57:51;;;;;;;5.28;1.45;;;9.00;99.90;;;;;;4978930;28;20031;-74
2023/05/17 02:00:18;;;;;;;3.88;1.45;;;9.00;99.90;;;;;;4978895;28;20027;-74
2023/05/17 02:02:44;;;;;;;3.47;1.50;;;8.90;99.90;;;;;;4978699;28;20054;-75
2023/05/17 02:05:10;;;;;;;3.38;1.70;;;9.00;99.90;;;;;;4978836;28;20034;-75
2023/05/17 02:07:36;;;;;;;7.05;1.40;;;9.00;99.90;;;;;;4978749;28;20119;-78
2023/05/17 02:10:02;;;;;;;4.47;1.90;;;9.10;99.90;;;;;;4978790;28;20042;-78
2023/05/17 02:12:28;;;;;;;4.20;1.90;;;9.10;99.90;;;;;;4978610;28;20091;-76
2023/05/17 02:14:53;;;;;;;5.18;1.83;;;9.10;99.90;;;;;;4978650;28;20114;-75
2023/05/17 02:17:19;;;;;;;2.58;1.25;;;9.10;99.90;;;;;;4978487;28;20078;-75
2023/05/17 02:19:44;;;;;;;4.70;1.40;;;9.00;99.90;;;;;;4978559;28;20027;-78
2023/05/17 02:22:09;;;;;;;3.17;1.73;;;9.00;99.90;;;;;;4978427;28;20110;-75
2023/05/17 02:24:35;;;;;;;4.38;1.40;;;8.80;99.90;;;;;;4978490;28;20035;-75
2023/05/17 02:27:02;;;;;;;2.47;1.65;;;8.50;99.90;;;;;;4978794;28;20030;-76
2023/05/17 02:29:28;;;;;;;6.68;1.70;;;8.60;99.90;;;;;;4984311;28;20029;-75
2023/05/17 02:31:53;;;;;;;3.00;2.08;;;8.60;99.90;;;;;;5039038;28;20100;-77
2023/05/17 02:34:19;;;;;;;10.00;3.80;;;8.70;99.90;;;;;;5037840;28;20020;-79
2023/05/17 02:36:44;;;;;;;7.15;2.63;;;8.70;99.90;;;;;;5036671;28;20026;-73
2023/05/17 02:39:10;;;;;;;4.82;1.92;;;8.80;99.90;;;;;;5037589;28;20021;-74
2023/05/17 02:41:35;;;;;;;5.40;1.92;;;8.80;99.90;;;;;;5037789;28;20017;-74
2023/05/17 02:44:01;;;;;;;5.45;1.73;;;8.80;99.90;;;;;;5038450;28;20031;-74
2023/05/17 02:46:26;;;;;;;4.72;1.85;;;8.90;99.90;;;;;;5037397;28;20025;-75
2023/05/17 02:48:52;;;;;;;5.97;1.75;;;8.90;99.90;;;;;;5038209;28;20029;-76
2023/05/17 02:51:17;;;;;;;5.20;1.75;;;8.60;99.90;;;;;;5037299;28;20030;-76
2023/05/17 02:53:43;;;;;;;11.07;1.90;;;8.60;99.90;;;;;;5038302;28;20021;-78
2023/05/17 02:56:08;;;;;;;4.70;1.50;;;8.40;99.90;;;;;;5037516;28;20021;-73
2023/05/17 02:58:34;;;;;;;4.93;1.60;;;8.40;99.90;;;;;;5037521;28;20028;-74
2023/05/17 03:00:59;;;;;;;10.05;2.58;;;8.40;99.90;;;;;;5037218;28;20022;-75
2023/05/17 03:03:25;;;;;;;3.70;1.80;;;8.50;99.90;;;;;;5037903;28;20133;-78
2023/05/17 03:05:50;;;;;;;4.38;1.90;;;8.60;99.90;;;;;;5037296;28;20086;-78
2023/05/17 03:08:16;;;;;;;6.82;2.10;;;8.70;99.90;;;;;;5037204;28;20026;-77
2023/05/17 03:10:41;;;;;;;4.80;1.70;;;8.80;99.90;;;;;;5036937;28;20029;-76
2023/05/17 03:13:07;;;;;;;6.28;1.98;;;8.80;99.90;;;;;;5037008;28;20036;-76
2023/05/17 03:15:33;;;;;;;2.85;1.73;;;9.00;99.90;;;;;;5036629;28;20053;-74
2023/05/17 03:17:58;;;;;;;9.35;2.20;;;9.00;99.90;;;;;;5037054;28;20071;-77
2023/05/17 03:20:24;;;;;;;6.72;2.35;;;8.90;99.90;;;;;;5037745;28;20108;-74
2023/05/17 03:22:50;;;;;;;3.88;1.90;;;8.90;99.90;;;;;;5036755;28;20033;-76
2023/05/17 03:25:15;;;;;;;6.47;2.55;;;8.90;99.90;;;;;;5036692;28;20033;-76
2023/05/17 03:27:41;;;;;;;4.88;2.17;;;8.80;99.90;;;;;;5036735;28;20120;-73
2023/05/17 03:30:07;;;;;;;11.60;2.55;;;8.60;99.90;;;;;;5036619;28;20029;-75
2023/05/17 03:32:33;;;;;;;4.05;2.03;;;8.30;99.90;;;;;;5037522;28;20029;-76
2023/05/17 03:34:58;;;;;;;4.40;1.88;;;8.30;99.90;;;;;;5037396;28;20022;-76
2023/05/17 03:37:24;;;;;;;5.80;1.73;;;8.40;99.90;;;;;;5036343;28;20032;-75
2023/05/17 03:39:50;;;;;;;5.35;2.20;;;8.40;99.90;;;;;;5036863;28;20028;-75
2023/05/17 03:42:15;;;;;;;4.20;1.90;;;8.50;99.90;;;;;;5036788;28;20022;-75
2023/05/17 03:44:41;;;;;;;3.20;1.83;;;8.50;99.90;;;;;;5036572;28;20097;-74
2023/05/17 03:47:06;;;;;;;6.75;2.10;;;8.30;99.90;;;;;;5036362;28;20029;-74
2023/05/17 03:49:32;;;;;;;5.70;2.33;;;8.30;99.90;;;;;;5036393;28;20214;-78
2023/05/17 03:51:58;;;;;;;3.88;2.38;;;8.30;99.90;;;;;;5036801;28;20025;-78
2023/05/17 03:54:23;;;;;;;4.03;1.80;;;8.40;99.90;;;;;;5036511;28;20013;-78
2023/05/17 03:56:49;;;;;;;7.72;2.42;;;8.50;99.90;;;;;;5036310;28;20057;-76
2023/05/17 03:59:15;;;;;;;10.45;2.20;;;8.50;99.90;;;;;;5037261;28;20028;-78
2023/05/17 04:01:42;;;;;;;2.88;1.70;;;8.60;99.90;;;;;;5036665;28;20084;-73
2023/05/17 04:04:08;;;;;;;3.60;1.63;;;8.60;99.90;;;;;;5036660;28;20021;-74
2023/05/17 04:06:34;;;;;;;5.63;1.80;;;8.60;99.90;;;;;;5036376;28;20022;-74
2023/05/17 04:09:00;;;;;;;5.82;2.00;;;8.60;99.90;;;;;;5037029;28;20044;-74
2023/05/17 04:11:26;;;;;;;4.10;1.67;;;8.60;99.90;;;;;;5036134;28;20026;-73
2023/05/17 04:13:53;;;;;;;3.65;1.83;;;8.60;99.90;;;;;;5036218;28;20086;-78
2023/05/17 04:16:18;;;;;;;4.93;1.92;;;8.50;99.90;;;;;;5036346;28;20030;-74
2023/05/17 04:18:44;;;;;;;6.35;2.10;;;8.30;99.90;;;;;;5036132;28;20057;-76
2023/05/17 04:21:10;;;;;;;4.47;2.17;;;8.20;99.90;;;;;;5036834;28;20025;-76
2023/05/17 04:23:36;;;;;;;3.80;2.30;;;8.20;99.90;;;;;;5036187;28;20026;-75
2023/05/17 04:26:03;;;;;;;5.50;1.85;;;8.20;99.90;;;;;;5036334;28;20030;-76
2023/05/17 04:28:30;;;;;;;7.07;2.15;;;8.30;99.90;;;;;;5036251;28;20154;-75
2023/05/17 04:30:55;;;;;;;1.70;1.30;;;8.30;99.90;;;;;;5036114;28;20026;-77
2023/05/17 04:33:21;;;;;;;3.15;1.48;;;8.30;99.90;;;;;;5036576;28;20018;-78
2023/05/17 04:35:49;;;;;;;4.90;2.30;;;8.30;99.90;;;;;;5036225;28;20026;-78
2023/05/17 04:38:15;;;;;;;4.97;1.70;;;8.30;99.90;;;;;;5036357;28;20029;-76
2023/05/17 04:40:41;;;;;;;7.30;1.80;;;8.40;99.90;;;;;;5036433;28;20021;-75
2023/05/17 04:43:07;;;;;;;7.50;2.38;;;8.50;99.90;;;;;;5036156;28;20033;-74
2023/05/17 04:45:32;;;;;;;5.00;1.77;;;8.60;99.90;;;;;;5035698;28;20078;-78
2023/05/17 04:47:58;;;;;;;7.18;2.53;;;8.70;99.90;;;;;;5036849;28;20034;-74
2023/05/17 04:50:25;;;;;;;6.68;2.17;;;8.80;99.90;;;;;;5036018;28;20029;-74
2023/05/17 04:52:50;;;;;;;6.03;2.15;;;8.90;99.90;;;;;;5035735;28;20025;-74
2023/05/17 04:55:16;;;;;;;18.35;3.38;;;9.00;99.90;;;;;;5035928;28;20099;-74
2023/05/17 04:57:41;;;;;;;6.95;2.85;;;9.10;99.90;;;;;;5036461;28;20058;-74
2023/05/17 05:00:10;;;;;;;9.32;2.67;;;9.30;99.90;;;;;;5038089;28;20026;-74
2023/05/17 05:02:35;;;;;;;6.32;2.67;;;9.50;99.90;;;;;;5039679;28;20053;-74
2023/05/17 05:05:02;;;;;;;6.35;2.53;;;9.50;99.90;;;;;;5040165;28;20033;-74
2023/05/17 05:07:27;;;;;;;6.38;2.33;;;9.50;99.90;;;;;;5039689;28;20095;-74
2023/05/17 05:09:53;;;;;;;4.15;2.33;;;9.30;99.90;;;;;;5039271;28;20060;-74
2023/05/17 05:12:19;;;;;;;4.10;2.20;;;9.30;99.90;;;;;;5039419;28;20037;-74
2023/05/17 05:14:44;;;;;;;6.85;2.50;;;9.20;99.90;;;;;;5040018;28;20040;-74
2023/05/17 05:17:10;;;;;;;11.85;3.00;;;9.10;99.90;;;;;;5039092;28;20030;-74
2023/05/17 05:19:35;;;;;;;5.38;2.20;;;9.10;99.90;;;;;;5039330;28;20017;-74
2023/05/17 05:22:01;;;;;;;5.47;2.30;;;9.10;99.90;;;;;;5039634;28;20028;-74
2023/05/17 05:24:27;;;;;;;5.50;2.47;;;9.20;99.90;;;;;;5039746;28;20026;-74
2023/05/17 05:26:52;;;;;;;7.15;2.88;;;9.40;99.90;;;;;;5039103;28;20022;-74
2023/05/17 05:29:18;;;;;;;9.75;3.08;;;9.50;99.90;;;;;;5039366;28;20025;-74
2023/05/17 05:31:44;;;;;;;9.38;2.78;;;9.50;99.90;;;;;;5039604;28;20120;-74
2023/05/17 05:34:09;;;;;;;4.60;2.28;;;9.50;99.90;;;;;;5039043;28;20021;-74
2023/05/17 05:36:35;;;;;;;8.05;2.95;;;9.80;99.90;;;;;;5039653;28;20022;-74
2023/05/17 05:39:01;;;;;;;9.05;2.60;;;10.00;99.90;;;;;;5038860;28;20089;-74
2023/05/17 05:41:26;;;;;;;7.18;3.05;;;10.20;99.90;;;;;;5039000;28;20118;-74
2023/05/17 05:43:52;;;;;;;4.78;2.65;;;10.20;99.90;;;;;;5039082;28;20021;-74
2023/05/17 05:46:18;;;;;;;5.47;2.45;;;10.30;99.90;;;;;;5039019;28;20052;-74
2023/05/17 05:48:43;;;;;;;7.05;2.63;;;10.30;99.90;;;;;;5039867;28;20064;-74
2023/05/17 05:51:09;;;;;;;6.47;2.80;;;10.30;99.90;;;;;;5038893;28;20065;-74
2023/05/17 05:53:35;;;;;;;3.20;1.95;;;10.50;99.90;;;;;;5038833;28;20075;-74
2023/05/17 05:56:01;;;;;;;13.43;2.63;;;10.50;99.90;;;;;;5038661;28;20022;-74
2023/05/17 05:58:27;;;;;;;6.80;2.40;;;10.60;99.90;;;;;;5038688;28;20021;-74
2023/05/17 06:00:53;;;;;;;8.23;2.67;;;10.70;99.90;;;;;;5038825;28;20029;-74
2023/05/17 06:03:19;;;;;;;7.55;2.92;;;10.70;99.90;;;;;;5039465;28;20026;-74
2023/05/17 06:05:44;;;;;;;4.93;2.20;;;10.80;99.90;;;;;;5038302;28;20033;-74
2023/05/17 06:08:10;;;;;;;10.05;2.80;;;10.90;99.90;;;;;;5038325;28;20025;-74
2023/05/17 06:10:35;;;;;;;7.93;2.35;;;10.90;99.90;;;;;;5038852;28;20075;-74
2023/05/17 06:13:01;;;;;;;7.28;2.53;;;11.10;99.90;;;;;;5038467;28;20040;-74
2023/05/17 06:17:54;;;;;;;7.07;2.20;;;11.20;99.90;;;;;;4978717;28;20102;-74
2023/05/17 06:20:20;;;;;;;10.38;2.63;;;11.30;99.90;;;;;;4979400;28;20015;-74
2023/05/17 06:22:45;;;;;;;12.35;2.25;;;11.30;99.90;;;;;;4979192;28;20023;-74
2023/05/17 06:25:11;;;;;;;12.82;2.25;;;11.40;99.90;;;;;;4979360;28;20018;-74
2023/05/17 06:27:36;;;;;;;7.72;2.30;;;11.60;99.90;;;;;;4979354;28;20080;-74
2023/05/17 06:30:05;;;;;;;5.50;2.63;;;11.60;99.90;;;;;;4978959;28;20122;-74
2023/05/17 06:32:31;;;;;;;6.10;2.05;;;11.60;99.90;;;;;;4979311;28;20026;-74
2023/05/17 06:34:57;;;;;;;6.07;2.75;;;11.70;99.90;;;;;;4979713;28;20084;-74
2023/05/17 06:37:22;;;;;;;5.90;1.88;;;11.70;99.90;;;;;;4979928;28;20046;-74
2023/05/17 06:39:50;;;;;;;7.45;2.10;;;11.90;99.90;;;;;;4978788;28;20023;-74
2023/05/17 06:42:16;;;;;;;9.00;2.45;;;11.90;99.90;;;;;;4978802;28;20029;-74
2023/05/17 06:44:42;;;;;;;17.42;2.80;;;12.00;99.90;;;;;;4979733;28;20102;-74
2023/05/17 06:47:07;;;;;;;11.98;3.10;;;11.90;99.90;;;;;;4979082;28;20027;-74
2023/05/17 06:49:33;;;;;;;12.77;2.30;;;12.00;99.90;;;;;;4978712;28;20059;-74
2023/05/17 06:52:02;;;;;;;6.10;2.60;;;12.00;99.90;;;;;;4979598;28;20035;-74
2023/05/17 06:54:28;;;;;;;8.32;2.33;;;12.00;99.90;;;;;;4978863;28;20026;-74
2023/05/17 06:56:54;;;;;;;9.60;2.50;;;12.20;99.90;;;;;;4978523;28;20029;-74
2023/05/17 06:59:20;;;;;;;12.38;3.15;;;12.20;99.90;;;;;;4978966;28;20026;-74
2023/05/17 07:01:45;;;;;;;4.85;1.90;;;12.10;99.90;;;;;;4979334;28;20019;-74
2023/05/17 07:04:10;;;;;;;7.55;2.60;;;12.30;99.90;;;;;;4979517;28;20030;-74
2023/05/17 07:06:36;;;;;;;7.68;2.33;;;12.20;99.90;;;;;;4978286;28;20070;-74
2023/05/17 07:09:02;;;;;;;9.82;2.88;;;12.10;99.90;;;;;;4978621;28;20031;-74
2023/05/17 07:11:27;;;;;;;10.30;2.17;;;12.20;99.90;;;;;;4978951;28;20030;-74
2023/05/17 07:13:52;;;;;;;7.15;2.22;;;12.10;99.90;;;;;;4978729;28;20026;-74
2023/05/17 07:16:18;;;;;;;7.43;2.60;;;12.10;99.90;;;;;;4978031;28;20031;-74
2023/05/17 07:18:43;;;;;;;14.02;2.25;;;12.00;99.90;;;;;;4978262;28;20027;-73
2023/05/17 07:21:09;;;;;;;8.10;2.25;;;12.00;99.90;;;;;;4978502;28;20023;-74
2023/05/17 07:23:35;;;;;;;9.32;2.10;;;12.00;99.90;;;;;;4977615;28;20074;-73
2023/05/17 07:26:00;;;;;;;9.43;2.17;;;12.10;99.90;;;;;;4978136;28;20110;-73
2023/05/17 07:28:26;;;;;;;11.45;1.95;;;12.10;99.90;;;;;;4978998;28;20035;-76
2023/05/17 07:30:51;;;;;;;8.60;2.45;;;12.10;99.90;;;;;;4978933;28;20030;-76
2023/05/17 07:33:17;;;;;;;10.27;2.33;;;12.10;99.90;;;;;;4978690;28;20116;-77
2023/05/17 07:35:43;;;;;;;11.63;2.00;;;12.10;99.90;;;;;;4977715;28;20077;-74
2023/05/17 07:38:09;;;;;;;9.27;2.33;;;12.20;99.90;;;;;;4978051;28;20257;-75
2023/05/17 07:40:35;;;;;;;10.55;2.58;;;12.10;99.90;;;;;;4977727;28;20027;-77
2023/05/17 07:43:00;;;;;;;6.32;3.03;;;12.20;99.90;;;;;;4977700;28;20037;-76
2023/05/17 07:45:26;;;;;;;5.35;2.22;;;12.20;99.90;;;;;;4977665;28;20031;-75
2023/05/17 07:47:51;;;;;;;6.57;1.95;;;12.30;99.90;;;;;;4977827;28;20031;-77
2023/05/17 07:50:17;;;;;;;10.70;1.65;;;12.40;99.90;;;;;;4977939;28;20018;-75
2023/05/17 07:52:42;;;;;;;8.48;2.00;;;12.60;99.90;;;;;;4977789;28;20033;-78
2023/05/17 07:55:08;;;;;;;9.13;1.83;;;12.70;99.90;;;;;;4978550;28;20078;-76
2023/05/17 07:57:34;;;;;;;12.65;1.92;;;12.90;99.90;;;;;;4977455;28;20019;-76
2023/05/17 07:59:59;;;;;;;7.03;1.88;;;13.00;99.90;;;;;;4977791;28;20113;-75
2023/05/17 08:02:25;;;;;;;4.93;1.42;;;13.20;99.90;;;;;;4978677;28;20086;-76
2023/05/17 08:04:51;;;;;;;7.88;1.85;;;13.40;99.90;;;;;;4977471;28;20082;-77
2023/05/17 08:07:16;;;;;;;6.05;1.90;;;13.40;99.90;;;;;;4977677;28;20034;-77
2023/05/17 08:09:44;;;;;;;7.15;1.90;;;13.30;99.90;;;;;;4977481;28;20091;-76
2023/05/17 08:12:10;;;;;;;6.05;1.83;;;13.30;99.90;;;;;;4977284;28;20019;-76
2023/05/17 08:14:35;;;;;;;5.88;1.52;;;13.20;99.90;;;;;;4977413;28;20054;-76
2023/05/17 08:17:01;;;;;;;12.00;1.90;;;13.20;99.90;;;;;;4977461;28;20030;-75
2023/05/17 08:19:27;;;;;;;10.60;2.35;;;13.10;99.90;;;;;;4977347;28;20069;-72
2023/05/17 08:21:52;;;;;;;5.38;1.60;;;13.10;99.90;;;;;;4978180;28;20023;-74
2023/05/17 08:24:18;;;;;;;5.57;1.35;;;13.10;99.90;;;;;;4977367;28;20031;-74
2023/05/17 08:26:43;;;;;;;7.22;1.80;;;13.10;99.90;;;;;;4977186;28;20101;-74
2023/05/17 08:29:09;;;;;;;5.10;1.88;;;13.20;99.90;;;;;;4978155;28;20105;-74
2023/05/17 08:31:35;;;;;;;5.18;1.40;;;13.20;99.90;;;;;;4977279;28;20031;-75
2023/05/17 08:34:00;;;;;;;5.50;1.40;;;13.20;99.90;;;;;;4977996;28;20038;-75
2023/05/17 08:36:27;;;;;;;3.50;1.33;;;13.30;99.90;;;;;;4981121;28;20023;-75
2023/05/17 08:38:52;;;;;;;7.47;1.33;;;13.30;99.90;;;;;;4981398;28;20026;-75
2023/05/17 08:41:19;;;;;;;11.50;1.77;;;13.40;99.90;;;;;;4981033;28;20033;-75
2023/05/17 08:43:46;;;;;;;7.13;1.40;;;13.50;99.90;;;;;;4981213;28;20073;-76
2023/05/17 08:46:14;;;;;;;6.68;1.45;;;13.40;99.90;;;;;;4980834;28;20030;-76
2023/05/17 08:48:42;;;;;;;4.03;1.00;;;13.60;99.90;;;;;;4981159;28;20035;-75
2023/05/17 08:51:10;;;;;;;7.10;1.30;;;13.70;99.90;;;;;;4981008;28;20038;-76
2023/05/17 08:53:36;;;;;;;5.70;1.40;;;13.60;99.90;;;;;;4980773;28;20031;-76
2023/05/17 08:56:04;;;;;;;4.78;1.40;;;13.60;99.90;;;;;;4981196;28;20057;-76
2023/05/17 08:58:36;;;;;;;4.40;1.20;;;13.50;99.90;;;;;;4980626;28;20030;-76
2023/05/17 09:01:03;;;;;;;5.25;1.30;;;13.50;99.90;;;;;;4981886;28;20050;-77
2023/05/17 09:03:29;;;;;;;6.95;1.00;;;13.60;99.90;;;;;;4980458;28;20110;-76
2023/05/17 09:05:55;;;;;;;6.32;1.33;;;13.60;99.90;;;;;;4980813;28;20131;-76
2023/05/17 09:08:21;;;;;;;5.95;1.25;;;13.70;99.90;;;;;;4981318;28;20026;-76
2023/05/17 09:10:47;;;;;;;4.28;1.20;;;13.70;99.90;;;;;;4980901;28;20054;-77
2023/05/17 09:13:13;;;;;;;3.35;1.10;;;13.70;99.90;;;;;;4980566;28;20065;-78
2023/05/17 09:15:43;;;;;;;10.60;1.38;;;13.60;99.90;;;;;;4980177;28;20082;-77
2023/05/17 09:18:12;;;;;;;5.07;1.17;;;13.50;99.90;;;;;;4980760;28;20074;-78
2023/05/17 09:20:39;;;;;;;9.98;1.85;;;13.60;99.90;;;;;;4981105;28;20113;-77
2023/05/17 09:23:08;;;;;;;3.42;1.15;;;13.50;99.90;;;;;;4981098;28;20034;-76
2023/05/17 09:25:34;;;;;;;5.55;0.95;;;13.50;99.90;;;;;;4981061;28;20030;-77
2023/05/17 09:28:01;;;;;;;6.07;1.40;;;13.40;99.90;;;;;;4980216;28;20031;-78
2023/05/17 09:30:28;;;;;;;6.90;1.40;;;13.50;99.90;;;;;;4981022;28;20031;-78
2023/05/17 09:32:54;;;;;;;3.88;0.90;;;13.80;99.90;;;;;;4980799;28;20030;-78
2023/05/17 09:35:30;;;;;;;8.07;1.52;;;14.30;99.90;;;;;;4979971;28;20030;-78
2023/05/17 09:38:13;;;;;;;5.28;1.30;;;14.50;99.90;;;;;;4980934;28;20026;-78
2023/05/17 09:40:43;;;;;;;9.65;1.40;;;14.60;99.90;;;;;;4980006;28;20022;-77
2023/05/17 09:43:10;;;;;;;8.48;1.23;;;14.90;99.90;;;;;;4979851;28;20034;-77
2023/05/17 09:45:36;;;;;;;7.32;1.65;;;15.00;99.90;;;;;;4979314;28;20027;-77
2023/05/17 09:48:12;;;;;;;9.75;2.00;;;15.20;99.90;;;;;;4979774;28;20030;-77
2023/05/17 09:50:43;;;;;;;5.47;2.00;;;15.40;99.90;;;;;;4980344;28;20078;-76
2023/05/17 09:53:21;;;;;;;6.90;1.33;;;15.40;99.90;;;;;;4979908;28;20123;-76
2023/05/17 09:55:47;;;;;;;4.53;1.00;;;15.40;99.90;;;;;;4980833;28;20086;-76
2023/05/17 09:58:13;;;;;;;5.47;1.30;;;15.50;99.90;;;;;;4979608;28;20023;-76
2023/05/17 10:00:41;;;;;;;7.10;1.20;;;15.70;99.90;;;;;;4979613;28;20078;-76
2023/05/17 10:03:10;;;;;;;7.45;1.50;;;15.80;99.90;;;;;;4979745;28;20038;-78
2023/05/17 10:05:37;;;;;;;3.60;1.25;;;15.90;99.90;;;;;;4979824;28;20027;-78
2023/05/17 10:08:05;;;;;;;4.03;1.70;;;16.00;99.90;;;;;;4980336;28;20023;-78
2023/05/17 10:10:31;;;;;;;5.38;1.52;;;16.20;99.90;;;;;;4980332;28;20034;-78
2023/05/17 10:12:59;;;;;;;7.13;1.80;;;16.10;99.90;;;;;;4980072;28;20037;-78
2023/05/17 10:15:25;;;;;;;6.82;1.98;;;16.20;99.90;;;;;;4979974;28;20170;-78
2023/05/17 10:17:52;;;;;;;6.72;1.45;;;16.40;99.90;;;;;;4979279;28;20027;-77
2023/05/17 10:20:19;;;;;;;11.27;1.95;;;16.30;99.90;;;;;;4980249;28;20023;-78
2023/05/17 10:22:46;;;;;;;6.05;1.35;;;16.40;99.90;;;;;;4980038;28;20027;-77
2023/05/17 10:25:13;;;;;;;6.00;1.63;;;16.50;99.90;;;;;;4979199;28;20030;-77
2023/05/17 10:27:39;;;;;;;7.03;2.17;;;16.60;99.90;;;;;;4979925;28;20019;-77
2023/05/17 10:30:06;;;;;;;11.15;2.03;;;16.60;99.90;;;;;;4980008;28;20078;-77
2023/05/17 10:32:32;;;;;;;7.32;2.00;;;16.90;99.90;;;;;;4979151;28;20027;-77
2023/05/17 10:34:58;;;;;;;4.55;1.52;;;17.00;99.90;;;;;;4978851;28;20065;-78
2023/05/17 10:37:25;;;;;;;6.10;1.45;;;17.20;99.90;;;;;;4979717;28;20069;-78
2023/05/17 10:39:51;;;;;;;7.18;1.13;;;17.40;99.90;;;;;;4979207;28;20027;-77
2023/05/17 10:42:18;;;;;;;4.97;1.70;;;17.60;99.90;;;;;;4979766;28;20021;-77
2023/05/17 10:44:44;;;;;;;6.63;1.63;;;17.90;99.90;;;;;;4978699;28;20027;-77
2023/05/17 10:47:10;;;;;;;12.30;1.85;;;17.90;99.90;;;;;;4979012;28;20030;-77
2023/05/17 10:49:38;;;;;;;6.00;1.35;;;18.30;99.90;;;;;;4979650;28;20030;-76
2023/05/17 10:52:17;;;;;;;7.05;1.83;;;18.40;99.90;;;;;;4978900;28;20026;-77
2023/05/17 10:54:46;;;;;;;6.90;1.92;;;18.10;99.90;;;;;;4978620;28;20030;-77
2023/05/17 10:57:33;;;;;;;6.47;2.40;;;18.20;99.10;;;;;;4977506;28;20027;-77
2023/05/17 11:00:00;;;;;;;11.40;1.90;;;18.50;99.90;;;;;;4978673;28;20023;-77
2023/05/17 11:02:27;;;;;;;6.07;1.52;;;18.40;99.90;;;;;;4978941;28;20033;-77
2023/05/17 11:04:54;;;;;;;11.48;2.05;;;18.60;99.90;;;;;;4978559;28;20119;-76
2023/05/17 11:07:24;;;;;;;9.95;1.52;;;18.50;99.90;;;;;;4978628;28;20029;-77
2023/05/17 11:09:54;;;;;;;6.75;1.52;;;18.70;99.60;;;;;;4979168;28;20119;-77
2023/05/17 11:12:37;;;;;;;8.70;1.77;;;18.80;97.40;;;;;;4978176;28;20114;-77
2023/05/17 11:15:07;;;;;;;6.18;2.17;;;19.00;98.30;;;;;;4978141;28;20050;-78
2023/05/17 11:17:41;;;;;;;18.55;2.42;;;19.20;98.50;;;;;;4978106;28;20031;-78
2023/05/17 11:20:27;;;;;;;11.15;2.20;;;19.50;98.50;;;;;;4978113;28;20030;-77
2023/05/17 11:22:58;;;;;;;9.13;1.90;;;19.50;97.30;;;;;;4977782;28;20035;-77
2023/05/17 11:25:27;;;;;;;6.35;1.58;;;19.60;96.60;;;;;;4978388;28;20031;-77
2023/05/17 11:27:53;;;;;;;9.93;1.90;;;19.60;95.40;;;;;;4978226;28;20062;-76
2023/05/17 11:30:30;;;;;;;11.05;2.15;;;19.30;94.50;;;;;;4978400;28;20077;-77
2023/05/17 11:33:05;;;;;;;5.88;1.40;;;19.60;95.60;;;;;;4978350;28;20027;-77
2023/05/17 11:35:40;;;;;;;6.97;1.80;;;19.60;94.40;;;;;;4977896;28;20105;-76
2023/05/17 11:38:20;;;;;;;8.40;1.80;;;20.00;95.40;;;;;;4977751;28;20035;-77
2023/05/17 11:40:48;;;;;;;6.55;1.75;;;20.00;96.10;;;;;;4978610;28;20110;-76
2023/05/17 11:43:14;;;;;;;9.30;1.58;;;20.00;96.50;;;;;;4978824;28;20030;-75
2023/05/17 11:45:46;;;;;;;7.00;1.70;;;20.10;93.70;;;;;;4978492;28;20113;-75
2023/05/17 11:48:13;;;;;;;7.13;2.00;;;20.30;92.90;;;;;;4977794;28;20134;-76
2023/05/17 11:50:40;;;;;;;9.40;1.88;;;19.80;91.70;;;;;;4977809;28;20038;-77
2023/05/17 11:53:07;;;;;;;7.43;1.40;;;20.20;92.30;;;;;;4977618;28;20038;-77
2023/05/17 11:55:37;;;;;;;12.82;2.28;;;20.10;91.50;;;;;;4977427;28;20022;-76
2023/05/17 11:58:05;;;;;;;6.85;1.60;;;20.20;91.80;;;;;;4978691;28;20022;-76
2023/05/17 12:00:31;;;;;;;5.80;1.85;;;20.60;91.80;;;;;;4978624;28;20034;-77
2023/05/17 12:02:56;;;;;;;11.43;2.17;;;20.80;91.50;;;;;;4977376;28;20033;-78
2023/05/17 12:05:22;;;;;;;4.85;1.80;;;21.00;93.00;;;;;;4978531;28;20105;-78
2023/05/17 12:07:53;;;;;;;7.90;1.80;;;21.00;88.90;;;;;;4977180;28;20145;-78
2023/05/17 12:10:20;;;;;;;8.93;2.47;;;21.00;91.00;;;;;;4977902;28;20077;-73
2023/05/17 12:12:46;;;;;;;3.88;1.75;;;21.20;86.80;;;;;;4978206;28;20031;-72
2023/05/17 12:15:17;;;;;;;13.63;2.25;;;20.70;87.80;;;;;;4977268;28;20034;-73
2023/05/17 12:17:46;;;;;;;8.07;1.98;;;21.20;90.80;;;;;;4977581;28;20030;-77
2023/05/17 12:20:12;;;;;;;8.43;2.30;;;21.00;85.80;;;;;;4978206;28;20023;-76
2023/05/17 12:22:52;;;;;;;6.88;1.80;;;20.40;86.40;;;;;;4977295;28;20110;-76
2023/05/17 12:25:24;;;;;;;5.15;1.75;;;20.90;90.50;;;;;;4978081;28;20050;-76
2023/05/17 12:27:50;;;;;;;8.77;1.85;;;21.20;86.80;;;;;;4977227;28;20030;-76
2023/05/17 12:30:16;;;;;;;6.75;1.75;;;21.20;84.70;;;;;;4977482;28;20086;-76
2023/05/17 12:32:42;;;;;;;6.35;1.73;;;21.50;85.00;;;;;;4977381;28;20031;-75
2023/05/17 12:35:08;;;;;;;8.57;2.00;;;21.60;83.10;;;;;;4977304;28;20027;-72
2023/05/17 12:37:34;;;;;;;6.90;1.95;;;21.90;81.10;;;;;;4976981;28;20023;-72
2023/05/17 12:40:03;;;;;;;7.60;1.60;;;21.90;84.90;;;;;;4977232;28;20023;-73
2023/05/17 12:42:32;;;;;;;5.60;1.70;;;21.80;85.50;;;;;;4977101;28;20034;-72
2023/05/17 12:45:00;;;;;;;6.25;1.90;;;22.10;82.70;;;;;;4977954;28;20051;-72
2023/05/17 12:47:32;;;;;;;7.00;1.92;;;21.80;80.60;;;;;;4976987;28;20027;-72
2023/05/17 12:49:59;;;;;;;3.97;1.83;;;21.60;79.50;;;;;;4977204;28;20042;-72
2023/05/17 12:52:24;;;;;;;6.60;2.15;;;21.60;82.90;;;;;;4976935;28;20095;-72
2023/05/17 12:54:50;;;;;;;8.88;2.00;;;21.70;85.00;;;;;;4977061;28;20119;-72